createdAt,value
2022-11-10T00:00:32.004Z,46.95
2022-11-10T00:05:52.805Z,46.36
2022-11-10T00:11:13.304Z,46.89
2022-11-10T00:16:52.344Z,46.92
2022-11-10T00:22:12.943Z,47.07
2022-11-10T00:27:34.325Z,46.36
2022-11-10T00:32:55.099Z,48.52
2022-11-10T00:38:15.757Z,47.63
2022-11-10T00:43:35.956Z,47.37
2022-11-10T00:48:56.748Z,47.01
2022-11-10T00:54:17.540Z,49.88
2022-11-10T00:59:38.273Z,51.09
2022-11-10T01:04:58.440Z,52.07
2022-11-10T01:10:18.932Z,50.69
2022-11-10T01:15:43.037Z,49.15
2022-11-10T01:21:03.941Z,48.86
2022-11-10T01:26:24.926Z,48.33
2022-11-10T01:31:46.007Z,48.59
2022-11-10T01:37:06.545Z,47.94
2022-11-10T01:42:37.867Z,47.34
2022-11-10T01:48:03.317Z,46.74
2022-11-10T01:53:27.017Z,47.48
2022-11-10T01:58:54.014Z,47.17
2022-11-10T02:04:17.884Z,46.28
2022-11-10T02:09:38.585Z,44.57
2022-11-10T02:14:59.154Z,45.72
2022-11-10T02:20:21.195Z,45.51
2022-11-10T02:25:42.035Z,45.93
2022-11-10T02:31:02.325Z,46.03
2022-11-10T02:36:22.601Z,46.52
2022-11-10T02:41:43.240Z,45.70
2022-11-10T02:47:03.666Z,46.91
2022-11-10T02:52:23.687Z,47.79
2022-11-10T02:57:44.071Z,47.70
2022-11-10T03:03:05.247Z,48.29
2022-11-10T03:08:26.108Z,47.13
2022-11-10T03:14:00.827Z,47.17
2022-11-10T03:19:22.509Z,46.39
2022-11-10T03:24:43.010Z,46.09
2022-11-10T03:30:04.700Z,45.60
2022-11-10T03:35:25.237Z,45.63
2022-11-10T03:41:17.143Z,45.92
2022-11-10T03:46:26.159Z,45.70
2022-11-10T03:51:46.831Z,46.13
2022-11-10T03:57:07.586Z,46.57
2022-11-10T04:02:27.961Z,46.55
2022-11-10T04:08:07.028Z,46.33
2022-11-10T04:13:45.980Z,46.91
2022-11-10T04:19:06.456Z,48.02
2022-11-10T04:24:27.139Z,46.75
2022-11-10T04:29:47.255Z,48.50
2022-11-10T04:35:07.947Z,48.80
2022-11-10T04:40:28.330Z,50.27
2022-11-10T04:45:49.247Z,47.58
2022-11-10T04:51:10.171Z,48.40
2022-11-10T04:56:30.675Z,47.24
2022-11-10T05:01:51.413Z,46.85
2022-11-10T05:07:12.168Z,47.46
2022-11-10T05:12:33.034Z,46.40
2022-11-10T05:17:54.782Z,46.84
2022-11-10T05:23:34.623Z,48.19
2022-11-10T05:28:55.509Z,46.96
2022-11-10T05:34:18.221Z,47.97
2022-11-10T05:39:38.965Z,47.76
2022-11-10T05:44:59.396Z,47.71
2022-11-10T05:50:22.146Z,46.11
2022-11-10T05:55:42.679Z,46.25
2022-11-10T06:01:03.025Z,46.12
2022-11-10T06:06:23.186Z,46.39
2022-11-10T06:11:43.870Z,45.51
2022-11-10T06:17:04.218Z,47.06
2022-11-10T06:22:25.175Z,47.51
2022-11-10T06:27:45.857Z,46.84
2022-11-10T06:33:06.276Z,48.23
2022-11-10T06:38:26.917Z,48.30
2022-11-10T06:43:47.320Z,47.10
2022-11-10T06:49:07.586Z,47.58
2022-11-10T06:54:27.790Z,46.25
2022-11-10T06:59:47.997Z,46.33
2022-11-10T07:05:08.397Z,45.27
2022-11-10T07:10:28.574Z,44.83
2022-11-10T07:15:49.290Z,44.26
2022-11-10T07:21:09.915Z,44.74
2022-11-10T07:26:30.200Z,45.87
2022-11-10T07:31:50.852Z,45.04
2022-11-10T07:37:11.725Z,45.11
2022-11-10T07:42:32.358Z,45.82
2022-11-10T07:48:01.559Z,45.88
2022-11-10T07:53:22.490Z,46.54
2022-11-10T07:58:43.041Z,47.07
2022-11-10T08:04:03.894Z,46.14
2022-11-10T08:09:24.731Z,46.86
2022-11-10T08:14:44.994Z,46.72
2022-11-10T08:20:06.255Z,46.97
2022-11-10T08:25:34.234Z,46.43
2022-11-10T08:30:56.215Z,45.66
2022-11-10T08:36:16.713Z,46.15
2022-11-10T08:41:37.075Z,45.79
2022-11-10T08:46:57.807Z,48.36
2022-11-10T08:52:18.432Z,49.39
2022-11-10T08:57:39.190Z,57.19
2022-11-10T09:03:13.722Z,55.75
2022-11-10T09:08:34.259Z,53.23
2022-11-10T09:13:54.888Z,53.47
2022-11-10T09:19:19.623Z,57.43
2022-11-10T09:24:40.634Z,53.11
2022-11-10T09:30:00.800Z,52.62
2022-11-10T09:35:23.257Z,55.01
2022-11-10T09:40:43.390Z,62.36
2022-11-10T09:46:11.663Z,58.63
2022-11-10T09:51:41.682Z,55.98
2022-11-10T09:57:07.229Z,66.15
2022-11-10T10:02:34.012Z,63.94
2022-11-10T10:08:05.773Z,66.61
2022-11-10T10:13:51.122Z,65.26
2022-11-10T10:19:37.777Z,66.39
2022-11-10T10:25:03.505Z,72.13
2022-11-10T10:30:24.349Z,69.52
2022-11-10T10:35:47.635Z,70.87
2022-11-10T10:41:23.597Z,70.65
2022-11-10T10:47:08.462Z,65.12
2022-11-10T10:52:28.681Z,69.67
2022-11-10T10:57:58.345Z,68.76
2022-11-10T11:03:45.773Z,66.74
2022-11-10T11:09:17.922Z,74.44
2022-11-10T11:14:43.337Z,71.30
2022-11-10T11:20:14.255Z,67.55
2022-11-10T11:25:42.141Z,64.00
2022-11-10T11:31:27.893Z,61.91
2022-11-10T11:36:54.720Z,57.50
2022-11-10T11:42:23.550Z,54.35
2022-11-10T11:48:02.527Z,55.50
2022-11-10T11:53:29.061Z,53.21
2022-11-10T11:59:30.427Z,52.08
2022-11-10T12:05:18.592Z,61.37
2022-11-10T12:11:19.812Z,59.38
2022-11-10T12:16:46.704Z,59.77
2022-11-10T12:22:35.446Z,59.53
2022-11-10T12:28:08.571Z,61.19
2022-11-10T12:33:36.776Z,56.57
2022-11-10T12:39:12.217Z,57.64
2022-11-10T12:44:39.783Z,53.83
2022-11-10T12:50:24.534Z,59.95
2022-11-10T12:55:52.347Z,56.39
2022-11-10T13:01:18.824Z,59.50
2022-11-10T13:06:47.756Z,54.93
2022-11-10T13:12:11.110Z,53.60
2022-11-10T13:17:31.586Z,53.81
2022-11-10T13:22:51.772Z,52.72
2022-11-10T13:28:12.561Z,54.16
2022-11-10T13:33:36.447Z,54.01
2022-11-10T13:38:57.409Z,50.81
2022-11-10T13:44:27.249Z,50.87
2022-11-10T13:50:21.118Z,52.15
2022-11-10T13:56:00.300Z,53.67
2022-11-10T14:01:27.069Z,52.13
2022-11-10T14:06:51.937Z,50.61
2022-11-10T14:12:46.559Z,50.08
2022-11-10T14:18:26.110Z,51.06
2022-11-10T14:23:56.930Z,54.67
2022-11-10T14:29:40.437Z,53.70
2022-11-10T14:35:02.176Z,52.34
2022-11-10T14:40:23.020Z,51.59
2022-11-10T14:45:51.009Z,48.08
2022-11-10T14:51:18.119Z,49.14
2022-11-10T14:56:42.549Z,50.92
2022-11-10T15:02:03.613Z,49.38
2022-11-10T15:07:24.311Z,46.98
2022-11-10T15:12:57.682Z,44.32
2022-11-10T15:18:29.765Z,50.01
2022-11-10T15:23:55.665Z,54.67
2022-11-10T15:29:23.901Z,58.58
2022-11-10T15:34:45.991Z,55.37
2022-11-10T15:40:28.007Z,51.01
2022-11-10T15:45:55.101Z,48.30
2022-11-10T15:51:21.439Z,47.06
2022-11-10T15:56:46.161Z,45.40
2022-11-10T16:02:22.188Z,44.70
2022-11-10T16:07:42.637Z,47.73
2022-11-10T16:13:03.575Z,47.40
2022-11-10T16:18:29.920Z,47.79
2022-11-10T16:23:51.636Z,49.84
2022-11-10T16:29:15.717Z,48.16
2022-11-10T16:34:36.031Z,47.29
2022-11-10T16:39:56.347Z,47.32
2022-11-10T16:45:22.301Z,46.00
2022-11-10T16:50:43.132Z,45.58
2022-11-10T16:56:04.163Z,44.69
2022-11-10T17:01:29.849Z,47.69
2022-11-10T17:06:50.304Z,45.34
2022-11-10T17:12:13.188Z,44.69
2022-11-10T17:17:36.352Z,44.43
2022-11-10T17:22:56.933Z,44.07
2022-11-10T17:28:18.963Z,45.32
2022-11-10T17:33:40.548Z,45.30
2022-11-10T17:39:01.540Z,46.59
2022-11-10T17:44:22.359Z,47.40
2022-11-10T17:49:43.167Z,46.38
2022-11-10T17:55:05.571Z,45.16
2022-11-10T18:00:25.892Z,44.58
2022-11-10T18:05:46.883Z,45.22
2022-11-10T18:11:09.429Z,46.22
2022-11-10T18:16:30.417Z,45.35
2022-11-10T18:21:50.885Z,44.58
2022-11-10T18:27:11.123Z,44.75
2022-11-10T18:32:32.339Z,45.06
2022-11-10T18:37:53.217Z,45.69
2022-11-10T18:43:14.012Z,46.21
2022-11-10T18:48:37.238Z,47.76
2022-11-10T18:53:58.747Z,47.63
2022-11-10T18:59:19.317Z,49.85
2022-11-10T19:04:40.675Z,48.18
2022-11-10T19:10:01.003Z,46.28
2022-11-10T19:15:21.583Z,47.52
2022-11-10T19:20:42.334Z,47.80
2022-11-10T19:26:04.822Z,46.67
2022-11-10T19:31:26.084Z,48.68
2022-11-10T19:36:46.849Z,47.59
2022-11-10T19:42:07.371Z,48.71
2022-11-10T19:47:30.090Z,48.12
2022-11-10T19:52:51.098Z,47.82
2022-11-10T19:58:14.128Z,48.35
2022-11-10T20:03:35.492Z,48.14
2022-11-10T20:08:56.304Z,47.25
2022-11-10T20:14:16.672Z,47.39
2022-11-10T20:19:41.197Z,47.72
2022-11-10T20:25:01.644Z,46.85
2022-11-10T20:30:23.762Z,46.99
2022-11-10T20:35:44.675Z,48.07
2022-11-10T20:41:11.192Z,47.58
2022-11-10T20:46:53.555Z,46.15
2022-11-10T20:52:12.125Z,47.34
2022-11-10T20:57:33.891Z,47.91
2022-11-10T21:02:54.220Z,47.35
2022-11-10T21:08:14.852Z,46.61
2022-11-10T21:13:37.167Z,47.36
2022-11-10T21:18:57.993Z,47.21
2022-11-10T21:24:18.639Z,45.60
2022-11-10T21:29:40.018Z,46.15
2022-11-10T21:35:00.223Z,46.73
2022-11-10T21:40:20.888Z,46.76
2022-11-10T21:45:41.545Z,47.53
2022-11-10T21:51:07.104Z,47.01
2022-11-10T21:56:27.489Z,47.50
2022-11-10T22:01:48.079Z,47.18
2022-11-10T22:07:25.057Z,47.43
2022-11-10T22:13:04.118Z,47.58
2022-11-10T22:18:41.234Z,47.37
2022-11-10T22:24:20.077Z,47.09
2022-11-10T22:29:40.676Z,47.11
2022-11-10T22:35:01.379Z,46.31
2022-11-10T22:40:39.887Z,45.41
2022-11-10T22:46:00.399Z,45.39
2022-11-10T22:51:21.413Z,44.78
2022-11-10T22:56:42.796Z,45.38
2022-11-10T23:02:03.306Z,44.12
2022-11-10T23:07:24.018Z,44.48
2022-11-10T23:12:44.632Z,45.04
2022-11-10T23:18:06.815Z,44.87
2022-11-10T23:23:28.747Z,44.38
2022-11-10T23:28:49.257Z,44.09
2022-11-10T23:34:09.885Z,45.00
2022-11-10T23:39:30.439Z,45.48
2022-11-10T23:44:50.978Z,45.83
2022-11-10T23:50:11.095Z,45.72
2022-11-10T23:55:31.580Z,45.22
